createdAt,value
2022-07-31T00:01:16.421Z,2.65
2022-07-31T00:04:38.715Z,0.85
2022-07-31T00:08:01.387Z,5.70
2022-07-31T00:11:23.594Z,1.85
2022-07-31T00:14:45.971Z,0.80
2022-07-31T00:18:08.874Z,0.95
2022-07-31T00:21:31.146Z,1.52
2022-07-31T00:24:53.554Z,1.65
2022-07-31T00:28:15.766Z,1.40
2022-07-31T00:31:38.940Z,1.63
2022-07-31T00:35:01.577Z,1.52
2022-07-31T00:38:26.846Z,2.28
2022-07-31T00:41:50.078Z,1.25
2022-07-31T00:45:13.349Z,4.25
2022-07-31T00:48:36.130Z,3.83
2022-07-31T00:51:58.666Z,1.30
2022-07-31T00:55:22.657Z,1.95
2022-07-31T00:58:44.873Z,2.03
2022-07-31T01:02:08.387Z,2.17
2022-07-31T01:05:31.170Z,1.80
2022-07-31T01:08:53.363Z,1.15
2022-07-31T01:12:21.553Z,1.40
2022-07-31T01:15:44.654Z,2.30
2022-07-31T01:19:42.248Z,3.95
2022-07-31T01:23:21.501Z,1.30
2022-07-31T01:27:50.136Z,1.33
2022-07-31T01:31:27.208Z,4.45
2022-07-31T01:34:57.530Z,1.60
2022-07-31T01:38:25.355Z,2.25
2022-07-31T01:41:49.840Z,1.33
2022-07-31T01:45:14.383Z,1.88
2022-07-31T01:48:38.317Z,1.23
2022-07-31T01:52:04.598Z,1.65
2022-07-31T01:55:29.166Z,1.80
2022-07-31T01:58:54.829Z,4.05
2022-07-31T02:02:44.571Z,2.00
2022-07-31T02:06:08.393Z,1.73
2022-07-31T02:09:33.209Z,1.90
2022-07-31T02:12:56.610Z,1.42
2022-07-31T02:16:20.258Z,3.08
2022-07-31T02:19:59.809Z,1.52
2022-07-31T02:23:23.083Z,2.22
2022-07-31T02:26:47.192Z,3.22
2022-07-31T02:30:09.899Z,2.63
2022-07-31T02:33:32.804Z,1.55
2022-07-31T02:36:55.569Z,2.10
2022-07-31T02:40:19.281Z,1.60
2022-07-31T02:43:42.993Z,2.55
2022-07-31T02:47:16.786Z,1.30
2022-07-31T02:50:40.016Z,4.70
2022-07-31T02:54:02.615Z,1.98
2022-07-31T02:57:25.050Z,2.60
2022-07-31T03:00:47.520Z,1.60
2022-07-31T03:04:13.793Z,2.83
2022-07-31T03:07:36.095Z,1.35
2022-07-31T03:10:58.491Z,1.90
2022-07-31T03:14:22.861Z,2.30
2022-07-31T03:17:47.419Z,1.83
2022-07-31T03:21:15.134Z,2.08
2022-07-31T03:24:37.572Z,1.50
2022-07-31T03:28:02.939Z,1.55
2022-07-31T03:31:25.500Z,2.42
2022-07-31T03:34:48.157Z,1.70
2022-07-31T03:38:42.144Z,1.33
2022-07-31T03:41:56.649Z,1.70
2022-07-31T03:45:19.309Z,1.65
2022-07-31T03:48:41.825Z,1.77
2022-07-31T03:52:09.995Z,1.55
2022-07-31T03:55:36.554Z,1.88
2022-07-31T03:58:59.062Z,1.50
2022-07-31T04:02:25.549Z,1.83
2022-07-31T04:05:55.138Z,1.55
2022-07-31T04:09:20.305Z,1.60
2022-07-31T04:12:43.960Z,1.70
2022-07-31T04:16:06.507Z,1.98
2022-07-31T04:19:31.035Z,3.03
2022-07-31T04:22:53.309Z,1.73
2022-07-31T04:26:44.704Z,2.13
2022-07-31T04:30:08.965Z,1.83
2022-07-31T04:33:31.267Z,1.67
2022-07-31T04:36:53.675Z,5.75
2022-07-31T04:40:16.205Z,2.85
2022-07-31T04:43:38.468Z,3.50
2022-07-31T04:47:01.972Z,1.95
2022-07-31T04:50:26.256Z,3.00
2022-07-31T04:53:53.475Z,2.00
2022-07-31T04:57:22.074Z,2.70
2022-07-31T05:00:44.602Z,3.78
2022-07-31T05:04:08.265Z,1.60
2022-07-31T05:07:31.394Z,2.15
2022-07-31T05:11:14.483Z,3.00
2022-07-31T05:14:37.151Z,2.78
2022-07-31T05:18:00.009Z,1.50
2022-07-31T05:21:52.906Z,7.40
2022-07-31T05:25:36.698Z,2.00
2022-07-31T05:29:00.890Z,1.58
2022-07-31T05:32:23.543Z,2.72
2022-07-31T05:35:46.925Z,1.60
2022-07-31T05:39:09.729Z,1.52
2022-07-31T05:42:34.524Z,6.18
2022-07-31T05:46:32.353Z,1.73
2022-07-31T05:49:55.900Z,1.95
2022-07-31T05:53:19.890Z,1.50
2022-07-31T05:57:00.556Z,1.45
2022-07-31T06:00:36.154Z,1.65
2022-07-31T06:03:58.424Z,3.50
2022-07-31T06:07:28.622Z,2.65
2022-07-31T06:10:51.040Z,1.52
2022-07-31T06:14:13.409Z,1.60
2022-07-31T06:17:53.915Z,2.35
2022-07-31T06:21:25.556Z,1.75
2022-07-31T06:24:49.820Z,1.60
2022-07-31T06:28:13.879Z,1.45
2022-07-31T06:31:40.475Z,1.63
2022-07-31T06:35:03.970Z,4.45
2022-07-31T06:38:30.867Z,2.00
2022-07-31T06:42:31.047Z,2.22
2022-07-31T06:46:02.067Z,2.13
2022-07-31T06:49:44.669Z,2.00
2022-07-31T06:53:06.925Z,1.85
2022-07-31T06:56:30.961Z,1.92
2022-07-31T06:59:53.321Z,3.35
2022-07-31T07:03:15.634Z,2.33
2022-07-31T07:06:38.111Z,2.00
2022-07-31T07:10:01.661Z,3.05
2022-07-31T07:13:46.147Z,1.90
2022-07-31T07:17:11.735Z,2.20
2022-07-31T07:20:34.204Z,4.40
2022-07-31T07:23:56.727Z,1.92
2022-07-31T07:27:39.386Z,4.03
2022-07-31T07:31:03.098Z,1.70
2022-07-31T07:34:25.694Z,1.88
2022-07-31T07:37:48.624Z,2.25
2022-07-31T07:41:10.983Z,1.73
2022-07-31T07:44:33.237Z,1.85
2022-07-31T07:48:06.446Z,1.80
2022-07-31T07:52:10.089Z,4.60
2022-07-31T07:55:37.589Z,2.85
2022-07-31T07:59:18.837Z,1.88
2022-07-31T08:03:50.377Z,1.67
2022-07-31T08:06:42.695Z,5.57
2022-07-31T08:10:06.730Z,2.58
2022-07-31T08:13:50.853Z,1.88
2022-07-31T08:17:32.006Z,3.58
2022-07-31T08:20:54.379Z,1.73
2022-07-31T08:24:17.012Z,2.47
2022-07-31T08:27:40.739Z,2.05
2022-07-31T08:31:04.810Z,1.73
2022-07-31T08:34:32.549Z,2.97
2022-07-31T08:38:03.509Z,6.82
2022-07-31T08:41:29.282Z,1.90
2022-07-31T08:44:51.971Z,4.18
2022-07-31T08:48:24.087Z,1.70
2022-07-31T08:51:50.999Z,1.60
2022-07-31T08:55:55.212Z,1.88
2022-07-31T08:59:19.890Z,1.58
2022-07-31T09:02:42.282Z,2.00
2022-07-31T09:06:43.020Z,2.83
2022-07-31T09:10:29.319Z,1.70
2022-07-31T09:14:01.457Z,1.50
2022-07-31T09:17:53.722Z,2.30
2022-07-31T09:21:16.966Z,1.55
2022-07-31T09:24:39.536Z,1.63
2022-07-31T09:28:05.714Z,1.75
2022-07-31T09:31:33.300Z,2.55
2022-07-31T09:35:13.240Z,2.35
2022-07-31T09:38:38.674Z,2.00
2022-07-31T09:42:46.021Z,2.22
2022-07-31T09:46:15.784Z,2.22
2022-07-31T09:49:38.855Z,5.25
2022-07-31T09:53:02.107Z,1.80
2022-07-31T09:56:34.744Z,1.88
2022-07-31T09:59:57.920Z,3.05
2022-07-31T10:03:20.764Z,2.55
2022-07-31T10:06:47.758Z,1.80
2022-07-31T10:10:12.141Z,3.30
2022-07-31T10:13:59.854Z,3.15
2022-07-31T10:17:28.664Z,3.33
2022-07-31T10:21:11.961Z,2.38
2022-07-31T10:24:48.562Z,1.98
2022-07-31T10:28:11.510Z,5.07
2022-07-31T10:31:33.834Z,9.48
2022-07-31T10:34:56.202Z,4.05
2022-07-31T10:39:03.823Z,2.47
2022-07-31T10:42:45.506Z,2.63
2022-07-31T10:46:08.729Z,1.70
2022-07-31T10:49:49.626Z,4.53
2022-07-31T10:53:50.475Z,8.23
2022-07-31T10:57:08.346Z,6.30
2022-07-31T11:01:07.200Z,2.00
2022-07-31T11:05:09.177Z,2.83
2022-07-31T11:08:54.334Z,4.28
2022-07-31T11:13:04.970Z,6.22
2022-07-31T11:16:56.757Z,71.47
2022-07-31T11:20:50.735Z,51.88
2022-07-31T11:24:21.562Z,39.90
2022-07-31T11:27:43.936Z,25.60
2022-07-31T11:31:07.329Z,22.20
2022-07-31T11:34:29.635Z,26.48
2022-07-31T11:37:56.791Z,37.25
2022-07-31T11:41:23.505Z,26.60
2022-07-31T11:44:46.451Z,25.40
2022-07-31T11:48:14.168Z,23.33
2022-07-31T11:51:37.763Z,22.45
2022-07-31T11:55:08.904Z,23.63
2022-07-31T11:58:31.842Z,5.50
2022-07-31T12:01:54.141Z,9.95
2022-07-31T12:05:16.414Z,13.30
2022-07-31T12:08:39.912Z,9.50
2022-07-31T12:12:05.893Z,4.63
2022-07-31T12:15:28.078Z,4.35
2022-07-31T12:18:59.062Z,4.47
2022-07-31T12:22:21.434Z,4.57
2022-07-31T12:25:46.035Z,2.70
2022-07-31T12:29:10.618Z,2.63
2022-07-31T12:32:32.876Z,3.10
2022-07-31T12:35:57.199Z,2.55
2022-07-31T12:39:19.635Z,2.00
2022-07-31T12:42:45.210Z,4.93
2022-07-31T12:46:07.550Z,2.33
2022-07-31T12:49:29.841Z,2.30
2022-07-31T12:52:53.106Z,2.17
2022-07-31T12:56:15.423Z,1.70
2022-07-31T12:59:37.929Z,2.10
2022-07-31T13:03:00.190Z,1.67
2022-07-31T13:06:22.941Z,2.00
2022-07-31T13:09:45.237Z,1.77
2022-07-31T13:13:27.538Z,3.63
2022-07-31T13:16:51.873Z,1.83
2022-07-31T13:20:16.533Z,2.42
2022-07-31T13:23:39.098Z,2.45
2022-07-31T13:27:01.856Z,4.50
2022-07-31T13:30:24.369Z,4.13
2022-07-31T13:33:46.628Z,4.03
2022-07-31T13:37:08.876Z,1.95
2022-07-31T13:41:09.331Z,4.85
2022-07-31T13:44:33.217Z,1.90
2022-07-31T13:47:59.851Z,1.80
2022-07-31T13:51:24.014Z,4.45
2022-07-31T13:54:51.185Z,2.25
2022-07-31T13:58:13.366Z,1.92
2022-07-31T14:02:03.297Z,2.05
2022-07-31T14:05:18.212Z,2.00
2022-07-31T14:08:49.351Z,1.85
2022-07-31T14:12:12.771Z,1.90
2022-07-31T14:15:37.691Z,3.80
2022-07-31T14:18:59.944Z,2.80
2022-07-31T14:22:22.177Z,3.22
2022-07-31T14:25:44.617Z,3.03
2022-07-31T14:29:07.192Z,1.88
2022-07-31T14:32:30.698Z,2.15
2022-07-31T14:35:54.650Z,2.30
2022-07-31T14:39:17.508Z,1.80
2022-07-31T14:42:40.414Z,2.08
2022-07-31T14:46:02.651Z,2.00
2022-07-31T14:49:24.855Z,1.90
2022-07-31T14:53:10.984Z,1.80
2022-07-31T14:56:59.633Z,2.22
2022-07-31T15:00:15.834Z,1.73
2022-07-31T15:03:38.518Z,2.90
2022-07-31T15:07:19.147Z,2.42
2022-07-31T15:10:43.169Z,1.80
2022-07-31T15:14:05.467Z,2.50
2022-07-31T15:17:27.665Z,4.35
2022-07-31T15:20:49.891Z,1.80
2022-07-31T15:24:12.177Z,1.77
2022-07-31T15:27:34.433Z,1.90
2022-07-31T15:31:00.938Z,1.95
2022-07-31T15:34:23.441Z,1.70
2022-07-31T15:37:45.710Z,1.88
2022-07-31T15:41:08.190Z,1.55
2022-07-31T15:44:30.374Z,2.00
2022-07-31T15:47:52.749Z,2.20
2022-07-31T15:51:14.999Z,2.10
2022-07-31T15:54:37.189Z,1.85
2022-07-31T15:57:59.438Z,3.15
2022-07-31T16:01:21.723Z,1.90
2022-07-31T16:04:51.869Z,1.60
2022-07-31T16:08:31.380Z,2.63
2022-07-31T16:12:03.007Z,1.60
2022-07-31T16:15:28.703Z,1.70
2022-07-31T16:18:50.942Z,1.73
2022-07-31T16:22:13.321Z,2.67
2022-07-31T16:25:35.597Z,1.50
2022-07-31T16:28:57.784Z,2.90
2022-07-31T16:32:20.041Z,1.30
2022-07-31T16:35:42.470Z,1.38
2022-07-31T16:39:20.073Z,1.60
2022-07-31T16:42:42.856Z,1.60
2022-07-31T16:46:05.250Z,2.65
2022-07-31T16:49:31.900Z,1.50
2022-07-31T16:52:58.770Z,1.35
2022-07-31T16:56:21.036Z,3.55
2022-07-31T16:59:57.561Z,1.23
2022-07-31T17:04:00.369Z,3.72
2022-07-31T17:07:07.576Z,1.08
2022-07-31T17:10:30.465Z,0.90
2022-07-31T17:13:52.660Z,0.73
2022-07-31T17:17:15.622Z,0.55
2022-07-31T17:20:39.356Z,0.60
2022-07-31T17:24:06.355Z,2.10
2022-07-31T17:27:28.719Z,0.57
2022-07-31T17:30:50.998Z,2.58
2022-07-31T17:34:13.193Z,8.45
2022-07-31T17:37:36.014Z,3.38
2022-07-31T17:41:00.245Z,1.77
2022-07-31T17:44:22.450Z,0.50
2022-07-31T17:47:46.428Z,2.10
2022-07-31T17:51:24.815Z,15.63
2022-07-31T17:54:47.907Z,23.45
2022-07-31T17:58:10.105Z,15.18
2022-07-31T18:01:34.189Z,24.85
2022-07-31T18:04:56.520Z,22.77
2022-07-31T18:08:18.766Z,17.02
2022-07-31T18:11:40.958Z,8.52
2022-07-31T18:15:03.670Z,6.65
2022-07-31T18:18:25.917Z,8.65
2022-07-31T18:21:48.414Z,3.30
2022-07-31T18:25:10.933Z,3.53
2022-07-31T18:28:33.217Z,4.10
2022-07-31T18:31:55.498Z,6.80
2022-07-31T18:35:17.713Z,1.77
2022-07-31T18:38:40.181Z,3.70
2022-07-31T18:42:02.829Z,2.20
2022-07-31T18:45:25.731Z,6.18
2022-07-31T18:48:53.086Z,3.58
2022-07-31T18:52:17.311Z,3.97
2022-07-31T18:55:39.546Z,3.20
2022-07-31T18:59:03.863Z,1.70
2022-07-31T19:02:26.448Z,1.27
2022-07-31T19:05:50.302Z,4.43
2022-07-31T19:09:12.509Z,10.45
2022-07-31T19:12:35.596Z,1.38
2022-07-31T19:15:57.992Z,1.85
2022-07-31T19:19:20.742Z,1.13
2022-07-31T19:22:43.069Z,2.33
2022-07-31T19:26:05.480Z,1.65
2022-07-31T19:29:27.684Z,0.73
2022-07-31T19:32:49.899Z,2.50
2022-07-31T19:36:12.421Z,0.50
2022-07-31T19:39:34.766Z,0.95
2022-07-31T19:42:58.589Z,2.28
2022-07-31T19:46:20.886Z,2.17
2022-07-31T19:49:44.693Z,2.65
2022-07-31T19:53:07.089Z,1.25
2022-07-31T19:56:29.497Z,1.58
2022-07-31T19:59:51.956Z,1.33
2022-07-31T20:03:14.288Z,1.95
2022-07-31T20:06:39.017Z,1.38
2022-07-31T20:10:01.845Z,6.03
2022-07-31T20:13:24.176Z,1.20
2022-07-31T20:16:46.467Z,3.95
2022-07-31T20:20:15.387Z,3.83
2022-07-31T20:23:41.399Z,3.53
2022-07-31T20:27:04.319Z,3.67
2022-07-31T20:30:26.654Z,1.10
2022-07-31T20:33:56.966Z,1.73
2022-07-31T20:37:19.662Z,2.28
2022-07-31T20:40:43.463Z,2.20
2022-07-31T20:44:15.431Z,0.82
2022-07-31T20:47:37.759Z,7.68
2022-07-31T20:51:01.775Z,2.58
2022-07-31T20:54:34.474Z,2.43
2022-07-31T20:57:57.206Z,4.55
2022-07-31T21:01:22.995Z,2.10
2022-07-31T21:04:25.259Z,2.30
2022-07-31T21:07:45.776Z,3.92
2022-07-31T21:11:08.362Z,3.15
2022-07-31T21:14:31.519Z,6.30
2022-07-31T21:17:53.759Z,1.75
2022-07-31T21:21:17.232Z,3.85
2022-07-31T21:24:39.710Z,3.97
2022-07-31T21:28:02.340Z,3.15
2022-07-31T21:31:24.798Z,3.38
2022-07-31T21:34:47.494Z,2.45
2022-07-31T21:38:15.137Z,5.40
2022-07-31T21:41:37.840Z,4.32
2022-07-31T21:45:00.454Z,4.70
2022-07-31T21:48:26.839Z,2.72
2022-07-31T21:51:49.452Z,2.97
2022-07-31T21:55:11.839Z,3.60
2022-07-31T21:58:34.038Z,1.85
2022-07-31T22:01:58.084Z,3.20
2022-07-31T22:05:43.156Z,3.30
2022-07-31T22:09:05.406Z,2.03
2022-07-31T22:12:27.675Z,1.45
2022-07-31T22:15:58.263Z,3.00
2022-07-31T22:19:23.880Z,3.65
2022-07-31T22:22:46.538Z,2.28
2022-07-31T22:26:09.391Z,4.38
2022-07-31T22:29:33.237Z,2.53
2022-07-31T22:32:58.809Z,5.25
2022-07-31T22:36:21.300Z,3.25
2022-07-31T22:39:44.623Z,2.83
2022-07-31T22:44:05.539Z,3.35
2022-07-31T22:46:51.431Z,3.88
2022-07-31T22:50:14.402Z,3.70
2022-07-31T22:53:36.729Z,7.22
2022-07-31T22:56:59.205Z,3.45
2022-07-31T23:00:21.468Z,3.20
2022-07-31T23:03:43.791Z,2.70
2022-07-31T23:07:06.711Z,3.00
2022-07-31T23:10:29.060Z,1.95
2022-07-31T23:13:52.211Z,2.92
2022-07-31T23:17:22.351Z,3.60
2022-07-31T23:20:45.771Z,2.78
2022-07-31T23:24:08.542Z,3.03
2022-07-31T23:27:31.077Z,3.92
2022-07-31T23:30:53.350Z,2.85
2022-07-31T23:34:18.577Z,3.72
2022-07-31T23:37:40.936Z,3.47
2022-07-31T23:41:03.270Z,1.83
2022-07-31T23:44:26.051Z,4.75
2022-07-31T23:47:48.305Z,1.90
2022-07-31T23:51:11.211Z,1.30
2022-07-31T23:54:33.855Z,1.05
2022-07-31T23:57:56.102Z,3.97
